sensor_id;sensor_type;location;lat;lon;timestamp;P1;durP1;ratioP1;P2;durP2;ratioP2
51987;SDS011;38003;52.012;4.346;2022-07-17T00:01:12;7.80;;;3.83;;
51987;SDS011;38003;52.012;4.346;2022-07-17T00:03:43;7.75;;;2.35;;
51987;SDS011;38003;52.012;4.346;2022-07-17T00:06:12;4.72;;;1.70;;
51987;SDS011;38003;52.012;4.346;2022-07-17T00:08:40;4.35;;;1.88;;
51987;SDS011;38003;52.012;4.346;2022-07-17T00:11:09;7.93;;;1.90;;
51987;SDS011;38003;52.012;4.346;2022-07-17T00:13:37;3.28;;;1.65;;
51987;SDS011;38003;52.012;4.346;2022-07-17T00:16:10;6.75;;;1.80;;
51987;SDS011;38003;52.012;4.346;2022-07-17T00:18:38;5.38;;;1.83;;
51987;SDS011;38003;52.012;4.346;2022-07-17T00:21:06;2.45;;;1.52;;
51987;SDS011;38003;52.012;4.346;2022-07-17T00:23:34;5.70;;;1.92;;
51987;SDS011;38003;52.012;4.346;2022-07-17T00:26:02;2.58;;;1.58;;
51987;SDS011;38003;52.012;4.346;2022-07-17T00:28:30;4.07;;;1.30;;
51987;SDS011;38003;52.012;4.346;2022-07-17T00:31:00;5.75;;;1.55;;
51987;SDS011;38003;52.012;4.346;2022-07-17T00:33:30;5.45;;;1.60;;
51987;SDS011;38003;52.012;4.346;2022-07-17T00:35:58;4.93;;;1.88;;
51987;SDS011;38003;52.012;4.346;2022-07-17T00:38:27;4.75;;;1.98;;
51987;SDS011;38003;52.012;4.346;2022-07-17T00:40:54;4.88;;;1.85;;
51987;SDS011;38003;52.012;4.346;2022-07-17T00:43:23;5.88;;;1.60;;
51987;SDS011;38003;52.012;4.346;2022-07-17T00:45:57;4.38;;;2.08;;
51987;SDS011;38003;52.012;4.346;2022-07-17T00:48:26;4.47;;;1.90;;
51987;SDS011;38003;52.012;4.346;2022-07-17T00:50:55;4.80;;;1.67;;
51987;SDS011;38003;52.012;4.346;2022-07-17T00:53:23;5.80;;;1.93;;
51987;SDS011;38003;52.012;4.346;2022-07-17T00:55:52;3.75;;;1.80;;
51987;SDS011;38003;52.012;4.346;2022-07-17T00:58:21;3.85;;;1.42;;
51987;SDS011;38003;52.012;4.346;2022-07-17T01:00:52;4.13;;;1.48;;
51987;SDS011;38003;52.012;4.346;2022-07-17T01:03:23;4.15;;;2.00;;
51987;SDS011;38003;52.012;4.346;2022-07-17T01:05:54;3.07;;;1.40;;
51987;SDS011;38003;52.012;4.346;2022-07-17T01:08:24;4.13;;;1.45;;
51987;SDS011;38003;52.012;4.346;2022-07-17T01:10:52;4.97;;;1.50;;
51987;SDS011;38003;52.012;4.346;2022-07-17T01:13:20;5.15;;;1.30;;
51987;SDS011;38003;52.012;4.346;2022-07-17T01:15:49;2.83;;;1.38;;
51987;SDS011;38003;52.012;4.346;2022-07-17T01:18:17;5.07;;;1.50;;
51987;SDS011;38003;52.012;4.346;2022-07-17T01:20:46;5.80;;;1.65;;
51987;SDS011;38003;52.012;4.346;2022-07-17T01:23:17;3.70;;;1.70;;
51987;SDS011;38003;52.012;4.346;2022-07-17T01:25:46;1.90;;;1.48;;
51987;SDS011;38003;52.012;4.346;2022-07-17T01:28:14;5.90;;;1.80;;
51987;SDS011;38003;52.012;4.346;2022-07-17T01:30:46;3.58;;;1.60;;
51987;SDS011;38003;52.012;4.346;2022-07-17T01:33:15;6.05;;;1.83;;
51987;SDS011;38003;52.012;4.346;2022-07-17T01:35:44;5.27;;;1.77;;
51987;SDS011;38003;52.012;4.346;2022-07-17T01:38:12;5.15;;;1.90;;
51987;SDS011;38003;52.012;4.346;2022-07-17T01:40:42;4.90;;;1.75;;
51987;SDS011;38003;52.012;4.346;2022-07-17T01:43:10;3.53;;;1.70;;
51987;SDS011;38003;52.012;4.346;2022-07-17T01:45:41;3.87;;;2.27;;
51987;SDS011;38003;52.012;4.346;2022-07-17T01:48:09;4.72;;;1.70;;
51987;SDS011;38003;52.012;4.346;2022-07-17T01:50:37;5.30;;;1.98;;
51987;SDS011;38003;52.012;4.346;2022-07-17T01:53:05;7.93;;;2.10;;
51987;SDS011;38003;52.012;4.346;2022-07-17T01:55:41;4.93;;;2.10;;
51987;SDS011;38003;52.012;4.346;2022-07-17T01:58:11;6.78;;;1.90;;
51987;SDS011;38003;52.012;4.346;2022-07-17T02:00:40;2.73;;;1.70;;
51987;SDS011;38003;52.012;4.346;2022-07-17T02:03:08;4.93;;;1.85;;
51987;SDS011;38003;52.012;4.346;2022-07-17T02:05:36;4.75;;;1.80;;
51987;SDS011;38003;52.012;4.346;2022-07-17T02:08:04;5.47;;;1.90;;
51987;SDS011;38003;52.012;4.346;2022-07-17T02:10:32;9.17;;;2.10;;
51987;SDS011;38003;52.012;4.346;2022-07-17T02:13:02;4.07;;;1.80;;
51987;SDS011;38003;52.012;4.346;2022-07-17T02:15:31;4.00;;;1.80;;
51987;SDS011;38003;52.012;4.346;2022-07-17T02:17:59;3.35;;;1.83;;
51987;SDS011;38003;52.012;4.346;2022-07-17T02:20:27;3.38;;;1.90;;
51987;SDS011;38003;52.012;4.346;2022-07-17T02:22:55;5.37;;;1.90;;
51987;SDS011;38003;52.012;4.346;2022-07-17T02:25:36;4.25;;;1.92;;
51987;SDS011;38003;52.012;4.346;2022-07-17T02:28:09;2.67;;;1.98;;
51987;SDS011;38003;52.012;4.346;2022-07-17T02:30:39;5.23;;;2.00;;
51987;SDS011;38003;52.012;4.346;2022-07-17T02:33:07;2.65;;;1.83;;
51987;SDS011;38003;52.012;4.346;2022-07-17T02:35:35;3.10;;;1.80;;
51987;SDS011;38003;52.012;4.346;2022-07-17T02:38:03;4.78;;;2.10;;
51987;SDS011;38003;52.012;4.346;2022-07-17T02:40:38;6.37;;;1.87;;
51987;SDS011;38003;52.012;4.346;2022-07-17T02:43:15;4.10;;;1.73;;
51987;SDS011;38003;52.012;4.346;2022-07-17T02:45:43;7.57;;;2.30;;
51987;SDS011;38003;52.012;4.346;2022-07-17T02:48:12;6.37;;;2.40;;
51987;SDS011;38003;52.012;4.346;2022-07-17T02:50:40;4.10;;;2.10;;
51987;SDS011;38003;52.012;4.346;2022-07-17T02:53:08;4.83;;;1.77;;
51987;SDS011;38003;52.012;4.346;2022-07-17T02:55:36;6.57;;;2.00;;
51987;SDS011;38003;52.012;4.346;2022-07-17T02:58:04;4.80;;;1.80;;
51987;SDS011;38003;52.012;4.346;2022-07-17T03:00:34;6.07;;;2.27;;
51987;SDS011;38003;52.012;4.346;2022-07-17T03:03:02;7.30;;;2.10;;
51987;SDS011;38003;52.012;4.346;2022-07-17T03:05:33;5.30;;;2.10;;
51987;SDS011;38003;52.012;4.346;2022-07-17T03:08:01;4.30;;;2.17;;
51987;SDS011;38003;52.012;4.346;2022-07-17T03:10:32;3.70;;;1.83;;
51987;SDS011;38003;52.012;4.346;2022-07-17T03:13:00;6.03;;;2.03;;
51987;SDS011;38003;52.012;4.346;2022-07-17T03:15:29;4.20;;;2.27;;
51987;SDS011;38003;52.012;4.346;2022-07-17T03:17:58;5.77;;;2.20;;
51987;SDS011;38003;52.012;4.346;2022-07-17T03:20:26;4.70;;;2.00;;
51987;SDS011;38003;52.012;4.346;2022-07-17T03:22:54;4.97;;;2.00;;
51987;SDS011;38003;52.012;4.346;2022-07-17T03:25:22;3.90;;;2.17;;
51987;SDS011;38003;52.012;4.346;2022-07-17T03:27:50;3.93;;;2.00;;
51987;SDS011;38003;52.012;4.346;2022-07-17T03:30:18;5.13;;;2.10;;
51987;SDS011;38003;52.012;4.346;2022-07-17T03:32:46;4.43;;;1.80;;
51987;SDS011;38003;52.012;4.346;2022-07-17T03:35:17;7.93;;;2.30;;
51987;SDS011;38003;52.012;4.346;2022-07-17T03:37:45;3.90;;;1.97;;
51987;SDS011;38003;52.012;4.346;2022-07-17T03:40:15;7.80;;;2.10;;
51987;SDS011;38003;52.012;4.346;2022-07-17T03:42:44;4.93;;;2.00;;
51987;SDS011;38003;52.012;4.346;2022-07-17T03:45:12;3.93;;;1.83;;
51987;SDS011;38003;52.012;4.346;2022-07-17T03:47:40;4.47;;;2.30;;
51987;SDS011;38003;52.012;4.346;2022-07-17T03:50:09;4.00;;;2.10;;
51987;SDS011;38003;52.012;4.346;2022-07-17T03:52:38;4.70;;;2.10;;
51987;SDS011;38003;52.012;4.346;2022-07-17T03:55:06;5.63;;;2.40;;
51987;SDS011;38003;52.012;4.346;2022-07-17T03:57:35;3.83;;;2.37;;
51987;SDS011;38003;52.012;4.346;2022-07-17T04:00:03;8.60;;;2.77;;
51987;SDS011;38003;52.012;4.346;2022-07-17T04:02:32;3.93;;;2.20;;
51987;SDS011;38003;52.012;4.346;2022-07-17T04:05:01;6.17;;;2.13;;
51987;SDS011;38003;52.012;4.346;2022-07-17T04:07:29;3.33;;;2.40;;
51987;SDS011;38003;52.012;4.346;2022-07-17T04:10:09;4.00;;;2.20;;
51987;SDS011;38003;52.012;4.346;2022-07-17T04:12:41;4.83;;;2.30;;
51987;SDS011;38003;52.012;4.346;2022-07-17T04:15:14;3.33;;;1.97;;
51987;SDS011;38003;52.012;4.346;2022-07-17T04:18:02;7.00;;;2.20;;
51987;SDS011;38003;52.012;4.346;2022-07-17T04:20:34;3.23;;;2.10;;
51987;SDS011;38003;52.012;4.346;2022-07-17T04:23:02;5.40;;;2.17;;
51987;SDS011;38003;52.012;4.346;2022-07-17T04:25:32;4.30;;;2.00;;
51987;SDS011;38003;52.012;4.346;2022-07-17T04:28:00;3.73;;;1.80;;
51987;SDS011;38003;52.012;4.346;2022-07-17T04:30:29;6.50;;;1.97;;
51987;SDS011;38003;52.012;4.346;2022-07-17T04:32:57;4.20;;;2.17;;
51987;SDS011;38003;52.012;4.346;2022-07-17T04:35:25;5.93;;;1.97;;
51987;SDS011;38003;52.012;4.346;2022-07-17T04:37:54;4.20;;;1.90;;
51987;SDS011;38003;52.012;4.346;2022-07-17T04:40:22;4.70;;;1.73;;
51987;SDS011;38003;52.012;4.346;2022-07-17T04:45:38;4.30;;;1.60;;
51987;SDS011;38003;52.012;4.346;2022-07-17T04:48:06;2.70;;;1.33;;
51987;SDS011;38003;52.012;4.346;2022-07-17T04:50:34;4.80;;;1.50;;
51987;SDS011;38003;52.012;4.346;2022-07-17T04:53:11;4.83;;;1.27;;
51987;SDS011;38003;52.012;4.346;2022-07-17T04:55:48;4.50;;;1.20;;
51987;SDS011;38003;52.012;4.346;2022-07-17T04:58:20;2.33;;;1.10;;
51987;SDS011;38003;52.012;4.346;2022-07-17T05:00:48;2.77;;;1.50;;
51987;SDS011;38003;52.012;4.346;2022-07-17T05:03:17;3.40;;;1.47;;
51987;SDS011;38003;52.012;4.346;2022-07-17T05:05:45;4.77;;;1.60;;
51987;SDS011;38003;52.012;4.346;2022-07-17T05:08:13;7.13;;;1.60;;
51987;SDS011;38003;52.012;4.346;2022-07-17T05:10:42;3.97;;;1.40;;
51987;SDS011;38003;52.012;4.346;2022-07-17T05:13:13;5.83;;;1.57;;
51987;SDS011;38003;52.012;4.346;2022-07-17T05:15:46;3.40;;;1.30;;
51987;SDS011;38003;52.012;4.346;2022-07-17T05:18:15;3.60;;;1.40;;
51987;SDS011;38003;52.012;4.346;2022-07-17T05:20:46;4.10;;;1.20;;
51987;SDS011;38003;52.012;4.346;2022-07-17T05:23:21;4.97;;;1.57;;
51987;SDS011;38003;52.012;4.346;2022-07-17T05:25:49;4.97;;;1.20;;
51987;SDS011;38003;52.012;4.346;2022-07-17T05:28:17;3.30;;;1.40;;
51987;SDS011;38003;52.012;4.346;2022-07-17T05:30:46;3.17;;;1.20;;
51987;SDS011;38003;52.012;4.346;2022-07-17T05:33:14;3.80;;;1.50;;
51987;SDS011;38003;52.012;4.346;2022-07-17T05:35:42;2.80;;;1.70;;
51987;SDS011;38003;52.012;4.346;2022-07-17T05:38:14;3.10;;;1.20;;
51987;SDS011;38003;52.012;4.346;2022-07-17T05:40:42;3.08;;;1.02;;
51987;SDS011;38003;52.012;4.346;2022-07-17T05:43:10;2.53;;;0.90;;
51987;SDS011;38003;52.012;4.346;2022-07-17T05:45:38;3.83;;;1.10;;
51987;SDS011;38003;52.012;4.346;2022-07-17T05:48:07;5.40;;;1.23;;
51987;SDS011;38003;52.012;4.346;2022-07-17T05:50:41;3.15;;;1.05;;
51987;SDS011;38003;52.012;4.346;2022-07-17T05:53:09;5.50;;;1.38;;
51987;SDS011;38003;52.012;4.346;2022-07-17T05:55:37;2.88;;;1.33;;
51987;SDS011;38003;52.012;4.346;2022-07-17T05:58:08;3.00;;;1.37;;
51987;SDS011;38003;52.012;4.346;2022-07-17T06:00:38;4.85;;;1.10;;
51987;SDS011;38003;52.012;4.346;2022-07-17T06:03:08;5.27;;;1.37;;
51987;SDS011;38003;52.012;4.346;2022-07-17T06:05:36;3.05;;;1.00;;
51987;SDS011;38003;52.012;4.346;2022-07-17T06:08:04;4.97;;;1.40;;
51987;SDS011;38003;52.012;4.346;2022-07-17T06:10:33;3.53;;;1.00;;
51987;SDS011;38003;52.012;4.346;2022-07-17T06:13:04;5.77;;;1.77;;
51987;SDS011;38003;52.012;4.346;2022-07-17T06:15:40;2.10;;;1.20;;
51987;SDS011;38003;52.012;4.346;2022-07-17T06:18:29;3.27;;;1.20;;
51987;SDS011;38003;52.012;4.346;2022-07-17T06:20:57;4.25;;;1.23;;
51987;SDS011;38003;52.012;4.346;2022-07-17T06:23:25;3.80;;;1.03;;
51987;SDS011;38003;52.012;4.346;2022-07-17T06:25:53;5.43;;;1.80;;
51987;SDS011;38003;52.012;4.346;2022-07-17T06:28:21;4.18;;;0.90;;
51987;SDS011;38003;52.012;4.346;2022-07-17T06:30:49;4.13;;;1.20;;
51987;SDS011;38003;52.012;4.346;2022-07-17T06:33:17;3.45;;;1.00;;
51987;SDS011;38003;52.012;4.346;2022-07-17T06:35:47;2.30;;;0.93;;
51987;SDS011;38003;52.012;4.346;2022-07-17T06:38:14;3.33;;;1.10;;
51987;SDS011;38003;52.012;4.346;2022-07-17T06:40:42;3.77;;;1.60;;
51987;SDS011;38003;52.012;4.346;2022-07-17T06:43:10;4.53;;;0.93;;
51987;SDS011;38003;52.012;4.346;2022-07-17T06:45:39;5.63;;;1.00;;
51987;SDS011;38003;52.012;4.346;2022-07-17T06:48:09;3.83;;;1.10;;
51987;SDS011;38003;52.012;4.346;2022-07-17T06:50:37;3.80;;;1.00;;
51987;SDS011;38003;52.012;4.346;2022-07-17T06:53:07;3.90;;;0.93;;
51987;SDS011;38003;52.012;4.346;2022-07-17T06:55:35;5.90;;;1.25;;
51987;SDS011;38003;52.012;4.346;2022-07-17T06:58:03;3.23;;;1.20;;
51987;SDS011;38003;52.012;4.346;2022-07-17T07:00:31;4.05;;;1.02;;
51987;SDS011;38003;52.012;4.346;2022-07-17T07:02:59;6.95;;;1.27;;
51987;SDS011;38003;52.012;4.346;2022-07-17T07:05:27;4.97;;;1.23;;
51987;SDS011;38003;52.012;4.346;2022-07-17T07:07:55;6.97;;;1.15;;
51987;SDS011;38003;52.012;4.346;2022-07-17T07:10:25;3.70;;;1.20;;
51987;SDS011;38003;52.012;4.346;2022-07-17T07:12:53;2.78;;;1.00;;
51987;SDS011;38003;52.012;4.346;2022-07-17T07:15:21;3.72;;;1.17;;
51987;SDS011;38003;52.012;4.346;2022-07-17T07:17:50;3.40;;;1.20;;
51987;SDS011;38003;52.012;4.346;2022-07-17T07:20:19;4.32;;;0.90;;
51987;SDS011;38003;52.012;4.346;2022-07-17T07:22:47;3.80;;;1.10;;
51987;SDS011;38003;52.012;4.346;2022-07-17T07:25:15;3.42;;;1.35;;
51987;SDS011;38003;52.012;4.346;2022-07-17T07:27:49;2.85;;;1.02;;
51987;SDS011;38003;52.012;4.346;2022-07-17T07:30:18;2.72;;;0.85;;
51987;SDS011;38003;52.012;4.346;2022-07-17T07:32:46;4.80;;;1.00;;
51987;SDS011;38003;52.012;4.346;2022-07-17T07:35:14;1.67;;;0.73;;
51987;SDS011;38003;52.012;4.346;2022-07-17T07:37:43;3.45;;;1.15;;
51987;SDS011;38003;52.012;4.346;2022-07-17T07:40:15;4.03;;;0.95;;
51987;SDS011;38003;52.012;4.346;2022-07-17T07:42:43;2.08;;;0.98;;
51987;SDS011;38003;52.012;4.346;2022-07-17T07:45:14;2.65;;;0.90;;
51987;SDS011;38003;52.012;4.346;2022-07-17T07:47:42;2.67;;;1.05;;
51987;SDS011;38003;52.012;4.346;2022-07-17T07:50:11;4.45;;;1.25;;
51987;SDS011;38003;52.012;4.346;2022-07-17T07:52:40;1.95;;;0.95;;
51987;SDS011;38003;52.012;4.346;2022-07-17T07:55:09;2.30;;;1.17;;
51987;SDS011;38003;52.012;4.346;2022-07-17T07:57:45;3.63;;;1.13;;
51987;SDS011;38003;52.012;4.346;2022-07-17T08:00:15;3.95;;;1.08;;
51987;SDS011;38003;52.012;4.346;2022-07-17T08:02:44;3.00;;;1.70;;
51987;SDS011;38003;52.012;4.346;2022-07-17T08:05:12;4.70;;;1.23;;
51987;SDS011;38003;52.012;4.346;2022-07-17T08:07:40;4.38;;;1.40;;
51987;SDS011;38003;52.012;4.346;2022-07-17T08:10:08;4.47;;;1.00;;
51987;SDS011;38003;52.012;4.346;2022-07-17T08:12:36;3.55;;;0.93;;
51987;SDS011;38003;52.012;4.346;2022-07-17T08:15:15;3.30;;;1.00;;
51987;SDS011;38003;52.012;4.346;2022-07-17T08:17:44;2.10;;;1.08;;
51987;SDS011;38003;52.012;4.346;2022-07-17T08:20:13;2.13;;;0.93;;
51987;SDS011;38003;52.012;4.346;2022-07-17T08:22:41;2.85;;;0.95;;
51987;SDS011;38003;52.012;4.346;2022-07-17T08:25:30;2.45;;;1.10;;
51987;SDS011;38003;52.012;4.346;2022-07-17T08:28:01;4.13;;;1.00;;
51987;SDS011;38003;52.012;4.346;2022-07-17T08:30:30;2.22;;;1.10;;
51987;SDS011;38003;52.012;4.346;2022-07-17T08:33:01;2.83;;;1.10;;
51987;SDS011;38003;52.012;4.346;2022-07-17T08:35:29;3.83;;;1.30;;
51987;SDS011;38003;52.012;4.346;2022-07-17T08:37:58;3.25;;;1.02;;
51987;SDS011;38003;52.012;4.346;2022-07-17T08:40:28;3.88;;;1.27;;
51987;SDS011;38003;52.012;4.346;2022-07-17T08:42:58;4.32;;;1.35;;
51987;SDS011;38003;52.012;4.346;2022-07-17T08:45:27;2.40;;;1.10;;
51987;SDS011;38003;52.012;4.346;2022-07-17T08:47:56;3.53;;;1.55;;
51987;SDS011;38003;52.012;4.346;2022-07-17T08:50:26;3.78;;;1.30;;
51987;SDS011;38003;52.012;4.346;2022-07-17T08:52:56;3.05;;;1.10;;
51987;SDS011;38003;52.012;4.346;2022-07-17T08:55:25;2.90;;;1.05;;
51987;SDS011;38003;52.012;4.346;2022-07-17T08:57:53;2.45;;;1.08;;
51987;SDS011;38003;52.012;4.346;2022-07-17T09:00:21;1.58;;;0.95;;
51987;SDS011;38003;52.012;4.346;2022-07-17T09:02:54;2.55;;;0.90;;
51987;SDS011;38003;52.012;4.346;2022-07-17T09:05:27;2.47;;;1.00;;
51987;SDS011;38003;52.012;4.346;2022-07-17T09:07:57;4.13;;;1.20;;
51987;SDS011;38003;52.012;4.346;2022-07-17T09:10:36;3.40;;;1.48;;
51987;SDS011;38003;52.012;4.346;2022-07-17T09:13:15;1.98;;;0.93;;
51987;SDS011;38003;52.012;4.346;2022-07-17T09:15:46;2.42;;;1.00;;
51987;SDS011;38003;52.012;4.346;2022-07-17T09:18:18;4.40;;;1.13;;
51987;SDS011;38003;52.012;4.346;2022-07-17T09:20:50;2.05;;;1.02;;
51987;SDS011;38003;52.012;4.346;2022-07-17T09:23:21;1.60;;;1.05;;
51987;SDS011;38003;52.012;4.346;2022-07-17T09:25:51;2.40;;;1.00;;
51987;SDS011;38003;52.012;4.346;2022-07-17T09:28:20;3.15;;;0.95;;
51987;SDS011;38003;52.012;4.346;2022-07-17T09:30:50;3.22;;;1.33;;
51987;SDS011;38003;52.012;4.346;2022-07-17T09:33:20;2.05;;;1.02;;
51987;SDS011;38003;52.012;4.346;2022-07-17T09:35:51;3.50;;;1.20;;
51987;SDS011;38003;52.012;4.346;2022-07-17T09:38:30;2.20;;;1.00;;
51987;SDS011;38003;52.012;4.346;2022-07-17T09:41:00;1.98;;;1.00;;
51987;SDS011;38003;52.012;4.346;2022-07-17T09:43:43;1.33;;;0.80;;
51987;SDS011;38003;52.012;4.346;2022-07-17T09:46:13;2.22;;;0.95;;
51987;SDS011;38003;52.012;4.346;2022-07-17T09:48:44;2.10;;;1.10;;
51987;SDS011;38003;52.012;4.346;2022-07-17T09:51:17;2.15;;;1.13;;
51987;SDS011;38003;52.012;4.346;2022-07-17T09:53:49;2.88;;;0.80;;
51987;SDS011;38003;52.012;4.346;2022-07-17T09:56:20;1.35;;;0.90;;
51987;SDS011;38003;52.012;4.346;2022-07-17T09:58:49;1.67;;;1.10;;
51987;SDS011;38003;52.012;4.346;2022-07-17T10:01:19;1.85;;;1.08;;
51987;SDS011;38003;52.012;4.346;2022-07-17T10:03:50;1.83;;;1.13;;
51987;SDS011;38003;52.012;4.346;2022-07-17T10:06:20;2.33;;;1.20;;
51987;SDS011;38003;52.012;4.346;2022-07-17T10:08:48;2.50;;;1.05;;
51987;SDS011;38003;52.012;4.346;2022-07-17T10:11:18;1.98;;;1.08;;
51987;SDS011;38003;52.012;4.346;2022-07-17T10:13:49;2.03;;;1.02;;
51987;SDS011;38003;52.012;4.346;2022-07-17T10:16:23;2.55;;;1.23;;
51987;SDS011;38003;52.012;4.346;2022-07-17T10:18:55;2.05;;;0.95;;
51987;SDS011;38003;52.012;4.346;2022-07-17T10:21:25;1.15;;;0.90;;
51987;SDS011;38003;52.012;4.346;2022-07-17T10:24:07;2.15;;;1.15;;
51987;SDS011;38003;52.012;4.346;2022-07-17T10:26:40;2.55;;;1.15;;
51987;SDS011;38003;52.012;4.346;2022-07-17T10:31:57;3.17;;;1.13;;
51987;SDS011;38003;52.012;4.346;2022-07-17T10:34:37;2.22;;;1.27;;
51987;SDS011;38003;52.012;4.346;2022-07-17T10:37:14;1.95;;;1.10;;
51987;SDS011;38003;52.012;4.346;2022-07-17T10:39:53;1.70;;;1.50;;
51987;SDS011;38003;52.012;4.346;2022-07-17T10:42:39;3.55;;;1.40;;
51987;SDS011;38003;52.012;4.346;2022-07-17T10:45:10;2.63;;;1.60;;
51987;SDS011;38003;52.012;4.346;2022-07-17T10:47:43;1.92;;;1.27;;
51987;SDS011;38003;52.012;4.346;2022-07-17T10:50:15;3.05;;;1.70;;
51987;SDS011;38003;52.012;4.346;2022-07-17T10:52:44;1.73;;;1.60;;
51987;SDS011;38003;52.012;4.346;2022-07-17T10:55:22;2.13;;;1.60;;
51987;SDS011;38003;52.012;4.346;2022-07-17T10:57:50;3.83;;;2.20;;
51987;SDS011;38003;52.012;4.346;2022-07-17T11:00:18;6.30;;;2.00;;
51987;SDS011;38003;52.012;4.346;2022-07-17T11:02:46;3.40;;;1.90;;
51987;SDS011;38003;52.012;4.346;2022-07-17T11:05:16;3.58;;;2.17;;
51987;SDS011;38003;52.012;4.346;2022-07-17T11:07:48;3.15;;;1.98;;
51987;SDS011;38003;52.012;4.346;2022-07-17T11:10:21;3.15;;;2.00;;
51987;SDS011;38003;52.012;4.346;2022-07-17T11:12:51;2.80;;;1.60;;
51987;SDS011;38003;52.012;4.346;2022-07-17T11:15:20;3.33;;;1.85;;
51987;SDS011;38003;52.012;4.346;2022-07-17T11:17:49;3.72;;;2.10;;
51987;SDS011;38003;52.012;4.346;2022-07-17T11:20:18;4.00;;;2.35;;
51987;SDS011;38003;52.012;4.346;2022-07-17T11:22:56;3.20;;;2.10;;
51987;SDS011;38003;52.012;4.346;2022-07-17T11:25:26;7.60;;;2.65;;
51987;SDS011;38003;52.012;4.346;2022-07-17T11:27:54;2.75;;;2.15;;
51987;SDS011;38003;52.012;4.346;2022-07-17T11:30:22;3.92;;;1.90;;
51987;SDS011;38003;52.012;4.346;2022-07-17T11:32:53;4.40;;;2.40;;
51987;SDS011;38003;52.012;4.346;2022-07-17T11:35:23;3.60;;;2.28;;
51987;SDS011;38003;52.012;4.346;2022-07-17T11:38:07;5.35;;;2.70;;
51987;SDS011;38003;52.012;4.346;2022-07-17T11:40:44;4.28;;;2.47;;
51987;SDS011;38003;52.012;4.346;2022-07-17T11:43:13;3.80;;;2.30;;
51987;SDS011;38003;52.012;4.346;2022-07-17T11:45:41;3.88;;;2.88;;
51987;SDS011;38003;52.012;4.346;2022-07-17T11:48:10;2.92;;;2.50;;
51987;SDS011;38003;52.012;4.346;2022-07-17T11:50:40;5.38;;;2.95;;
51987;SDS011;38003;52.012;4.346;2022-07-17T11:53:19;6.03;;;2.90;;
51987;SDS011;38003;52.012;4.346;2022-07-17T11:55:57;3.92;;;2.60;;
51987;SDS011;38003;52.012;4.346;2022-07-17T11:58:25;4.10;;;2.75;;
51987;SDS011;38003;52.012;4.346;2022-07-17T12:01:01;4.75;;;2.60;;
51987;SDS011;38003;52.012;4.346;2022-07-17T12:03:30;3.00;;;2.30;;
51987;SDS011;38003;52.012;4.346;2022-07-17T12:06:00;3.22;;;2.63;;
51987;SDS011;38003;52.012;4.346;2022-07-17T12:08:27;3.50;;;2.40;;
51987;SDS011;38003;52.012;4.346;2022-07-17T12:10:59;6.65;;;2.88;;
51987;SDS011;38003;52.012;4.346;2022-07-17T12:13:37;3.20;;;2.80;;
51987;SDS011;38003;52.012;4.346;2022-07-17T12:19:06;3.58;;;2.53;;
51987;SDS011;38003;52.012;4.346;2022-07-17T12:21:50;3.75;;;2.70;;
51987;SDS011;38003;52.012;4.346;2022-07-17T12:24:22;3.88;;;3.25;;
51987;SDS011;38003;52.012;4.346;2022-07-17T12:26:53;6.10;;;2.90;;
51987;SDS011;38003;52.012;4.346;2022-07-17T12:29:23;3.97;;;3.47;;
51987;SDS011;38003;52.012;4.346;2022-07-17T12:32:01;4.65;;;3.42;;
51987;SDS011;38003;52.012;4.346;2022-07-17T12:34:31;4.28;;;3.33;;
51987;SDS011;38003;52.012;4.346;2022-07-17T12:37:01;4.35;;;3.50;;
51987;SDS011;38003;52.012;4.346;2022-07-17T12:39:31;3.92;;;3.38;;
51987;SDS011;38003;52.012;4.346;2022-07-17T12:41:59;5.97;;;4.00;;
51987;SDS011;38003;52.012;4.346;2022-07-17T12:44:27;4.38;;;3.80;;
51987;SDS011;38003;52.012;4.346;2022-07-17T12:46:55;4.82;;;3.85;;
51987;SDS011;38003;52.012;4.346;2022-07-17T12:49:23;4.75;;;3.97;;
51987;SDS011;38003;52.012;4.346;2022-07-17T12:51:52;6.57;;;4.13;;
51987;SDS011;38003;52.012;4.346;2022-07-17T12:54:21;5.60;;;4.50;;
51987;SDS011;38003;52.012;4.346;2022-07-17T12:56:50;6.05;;;4.55;;
51987;SDS011;38003;52.012;4.346;2022-07-17T12:59:18;6.72;;;4.60;;
51987;SDS011;38003;52.012;4.346;2022-07-17T13:01:47;5.28;;;4.22;;
51987;SDS011;38003;52.012;4.346;2022-07-17T13:04:16;4.72;;;3.97;;
51987;SDS011;38003;52.012;4.346;2022-07-17T13:06:46;7.07;;;3.92;;
51987;SDS011;38003;52.012;4.346;2022-07-17T13:09:14;4.63;;;3.72;;
51987;SDS011;38003;52.012;4.346;2022-07-17T13:11:47;5.93;;;4.20;;
51987;SDS011;38003;52.012;4.346;2022-07-17T13:14:18;5.90;;;4.57;;
51987;SDS011;38003;52.012;4.346;2022-07-17T13:16:46;6.53;;;4.63;;
51987;SDS011;38003;52.012;4.346;2022-07-17T13:19:14;6.38;;;4.70;;
51987;SDS011;38003;52.012;4.346;2022-07-17T13:21:43;5.45;;;4.28;;
51987;SDS011;38003;52.012;4.346;2022-07-17T13:24:11;5.97;;;4.05;;
51987;SDS011;38003;52.012;4.346;2022-07-17T13:26:39;6.35;;;3.28;;
51987;SDS011;38003;52.012;4.346;2022-07-17T13:29:08;6.18;;;2.95;;
51987;SDS011;38003;52.012;4.346;2022-07-17T13:31:37;3.58;;;2.88;;
51987;SDS011;38003;52.012;4.346;2022-07-17T13:34:06;5.00;;;3.08;;
51987;SDS011;38003;52.012;4.346;2022-07-17T13:36:34;3.70;;;2.92;;
51987;SDS011;38003;52.012;4.346;2022-07-17T13:39:02;3.40;;;2.80;;
51987;SDS011;38003;52.012;4.346;2022-07-17T13:41:30;4.13;;;2.97;;
51987;SDS011;38003;52.012;4.346;2022-07-17T13:43:59;6.22;;;3.25;;
51987;SDS011;38003;52.012;4.346;2022-07-17T13:46:35;3.92;;;3.38;;
51987;SDS011;38003;52.012;4.346;2022-07-17T13:49:03;3.92;;;3.08;;
51987;SDS011;38003;52.012;4.346;2022-07-17T13:51:31;3.45;;;2.65;;
51987;SDS011;38003;52.012;4.346;2022-07-17T13:53:59;5.10;;;3.45;;
51987;SDS011;38003;52.012;4.346;2022-07-17T13:56:28;3.45;;;3.15;;
51987;SDS011;38003;52.012;4.346;2022-07-17T13:58:56;4.53;;;2.92;;
51987;SDS011;38003;52.012;4.346;2022-07-17T14:08:46;4.35;;;3.17;;
51987;SDS011;38003;52.012;4.346;2022-07-17T14:11:14;4.40;;;3.60;;
51987;SDS011;38003;52.012;4.346;2022-07-17T14:13:42;5.75;;;3.55;;
51987;SDS011;38003;52.012;4.346;2022-07-17T14:16:16;4.68;;;3.53;;
51987;SDS011;38003;52.012;4.346;2022-07-17T14:18:44;4.30;;;3.38;;
51987;SDS011;38003;52.012;4.346;2022-07-17T14:21:26;3.75;;;3.22;;
51987;SDS011;38003;52.012;4.346;2022-07-17T14:23:55;6.28;;;4.00;;
51987;SDS011;38003;52.012;4.346;2022-07-17T14:26:23;4.90;;;3.70;;
51987;SDS011;38003;52.012;4.346;2022-07-17T14:28:52;4.95;;;3.75;;
51987;SDS011;38003;52.012;4.346;2022-07-17T14:31:20;5.00;;;4.00;;
51987;SDS011;38003;52.012;4.346;2022-07-17T14:33:48;4.25;;;3.50;;
51987;SDS011;38003;52.012;4.346;2022-07-17T14:36:16;4.35;;;3.67;;
51987;SDS011;38003;52.012;4.346;2022-07-17T14:38:44;4.80;;;4.28;;
51987;SDS011;38003;52.012;4.346;2022-07-17T14:41:14;3.72;;;3.33;;
51987;SDS011;38003;52.012;4.346;2022-07-17T14:43:42;6.47;;;5.82;;
51987;SDS011;38003;52.012;4.346;2022-07-17T14:46:10;4.13;;;3.55;;
51987;SDS011;38003;52.012;4.346;2022-07-17T14:48:38;6.45;;;3.72;;
51987;SDS011;38003;52.012;4.346;2022-07-17T14:51:07;5.15;;;3.70;;
51987;SDS011;38003;52.012;4.346;2022-07-17T14:53:34;4.95;;;3.72;;
51987;SDS011;38003;52.012;4.346;2022-07-17T14:56:03;7.18;;;4.10;;
51987;SDS011;38003;52.012;4.346;2022-07-17T14:58:32;4.65;;;4.13;;
51987;SDS011;38003;52.012;4.346;2022-07-17T15:01:00;4.38;;;3.97;;
51987;SDS011;38003;52.012;4.346;2022-07-17T15:03:30;5.50;;;4.25;;
51987;SDS011;38003;52.012;4.346;2022-07-17T15:05:58;5.00;;;3.90;;
51987;SDS011;38003;52.012;4.346;2022-07-17T15:08:26;5.65;;;3.75;;
51987;SDS011;38003;52.012;4.346;2022-07-17T15:10:54;5.97;;;3.70;;
51987;SDS011;38003;52.012;4.346;2022-07-17T15:13:23;6.22;;;4.47;;
51987;SDS011;38003;52.012;4.346;2022-07-17T15:15:52;5.03;;;3.65;;
51987;SDS011;38003;52.012;4.346;2022-07-17T15:18:21;5.63;;;4.32;;
51987;SDS011;38003;52.012;4.346;2022-07-17T15:20:49;5.57;;;3.88;;